Monroe, WI

3:31 PM CST on January 27, 2015 (GMT -0600)
WIDOT Monroe - STH 11 @ STH 69 | Change Station
CLOSE
Current Station
Personal Weather Station
Location: Monroe, WI
Elevation: 1075 ft
Nearby Weather Stations

Elev 1075 ft 42.62 °N, 89.64 °W | Updated 33 minutes ago

Overcast
Overcast
28 °F
Feels Like 28 °F
N
1
Wind Variable Wind from NNE
Gusts 4.0 mph

Today
High -- | Low -- °F
--% Chance of Precip.
Yesterday
High -- | Low -- °F
Precip. -- in
7:17 AM 5:05 PM
First Quarter, 57% visible
Pressure 30.19 in
Visibility 2.5 miles
Clouds Overcast 500 ft
Windchill 28 °F
Dew Point 26 °F
Humidity 91%
Rainfall -999.00 in
Snow Depth Not available.
UV 0 out of 12
Pollen .10 out of 12
Air Quality Not available.
Flu Activity Not available.
METAR KEFT 272115Z AUTO 00000KT 2 1/2SM BR OVC005 M02/M02 A3019 RMK AO2

More Conditions Fewer Conditions

Pressure 30.19 in
Visibility 2.5 miles
Clouds Overcast 500 ft
Windchill 28 °F
Dew Point 26 °F
Humidity 91%
Rainfall -999.00 in
Snow Depth Not available.
UV 0 out of 12
Pollen .10 out of 12
Air Quality Not available.
Flu Activity Not available.
METAR KEFT 272115Z AUTO 00000KT 2 1/2SM BR OVC005 M02/M02 A3019 RMK AO2

More Conditions Fewer Conditions

10-Day Weather Forecast

Almanac

Astronomy

Jan. 27, 2015 Rise Set
Actual Time
Civil Twilight
Nautical Twilight
Astronomical Twilight
Moon
Length of Visible Light
Length of Day
Tomorrow will be .
, % of the Moon is Illuminated

Today's Extremes

State Highs State Lows

Community

WunderPhotos

Upload Photos

1,790,918 photos uploaded!

WunderBlogs® & News

Nearby

Air Quality

  Air Quality AQ Index Pollutant
Not available.

Snow Depth

Station Depth Elevation

Earthquake Activity

City Distance Mag. Time & Date
Minimum magnitude displayed is 2.5.

Coastal Water Temperatures

Place Temperature

Nearby Weather Stations